Strona główna
METAR-TAF:

METAR-TAF

Lotnisko :

Kunming, Chiny

Szerokość geograficzna: 25-01N, Długość geograficzna: 102-41E, wysokość: 1892 m

Aktualna obserwacja pogody

Raport powstał 50 minut temu, godzina 19:00 UTC
Wiatr 6 kt od południowy zachód
Temperatura 17°C
Wilgotność 94%
Ciśnienie 1015 hPa
Widzialność: 9000 m
Rozproszone chmury na wysokości 2000 ft
Zachmurzenie całkowite na wysokości 3600 ft
słaby przelotny opad deszczu

METAR: ZPPP 251900Z 22003MPS 9000 -SHRA SCT020 OVC036 17/16 Q1015 NOSIG

czas: 03:50 (19:50 UTC)

Prognoza

Raport powstał 6 godziny i 38 minut temu, godzina 13:12 UTC
Prognoza ważna od 25 godzina 18 UTC do 26 godzina 18 UTC
Wiatr 8 kt od południe
Widzialność 10 km lub więcej
Rozproszone chmury na wysokości 2000 ft
Przerywane chmury na wysokości 3300 ft

TAF: ZPPP 251312Z 2518/2618 18004MPS 9999 SCT020 BKN033 TX25/2608Z TN16/2523Z

Obserwacja i prognoza pogody dla ponad 4000 lotnisk (raport METAR i TAF).

Dostępne stacje oznaczono żółtymi i czerwonymi punktami na mapie.

Najedź kursorem aby zobaczyć nazwę stacji.

Kliknij aby zobaczyć obserwacje i prognozy pogody.

Aby zmienić mapę: kliknij na zielony przycisk z czarnym krzyżykiem, aby powiększyć; na zielony przycisk z myślnikiem, aby pomniejszyć; na zielone strzałki, aby przejść do map sąsiednich.


METAR-TAF: